Time;durP1;ratioP1;P1;durP2;ratioP2;P2;SDS_P1;SDS_P2;PMS_P1;PMS_P2;Temp;Humidity;BMP_temperature;BMP_pressure;BME280_temperature;BME280_humidity;BME280_pressure;Samples;Min_cycle;Max_cycle;Signal;HPM_P1;HPM_P2
2022/11/26 00:02:22;;;;;;;21.38;7.03;;;6.50;99.90;;;;;;5060028;28;20491;-77
2022/11/26 00:04:48;;;;;;;18.83;6.68;;;6.40;99.90;;;;;;5040885;28;20621;-76
2022/11/26 00:07:17;;;;;;;20.70;6.43;;;6.40;99.90;;;;;;5062963;28;20061;-77
2022/11/26 00:09:43;;;;;;;16.65;7.15;;;6.40;99.90;;;;;;5027211;28;20053;-77
2022/11/26 00:12:30;;;;;;;17.48;7.38;;;6.40;99.90;;;;;;5019629;28;20037;-76
2022/11/26 00:14:57;;;;;;;15.80;6.88;;;6.40;99.90;;;;;;5019893;28;20122;-77
2022/11/26 00:17:22;;;;;;;18.23;7.00;;;6.40;99.90;;;;;;5048049;28;20046;-76
2022/11/26 00:19:48;;;;;;;15.35;6.63;;;6.30;99.90;;;;;;5018042;28;20050;-76
2022/11/26 00:22:24;;;;;;;20.63;7.00;;;6.40;99.90;;;;;;5051659;28;20052;-76
2022/11/26 00:24:50;;;;;;;15.82;6.60;;;6.30;99.90;;;;;;5013164;28;20034;-77
2022/11/26 00:27:16;;;;;;;16.52;7.25;;;6.30;99.90;;;;;;5015808;28;20046;-77
2022/11/26 00:29:42;;;;;;;17.40;6.60;;;6.30;99.90;;;;;;5029079;28;20398;-77
2022/11/26 00:32:25;;;;;;;20.63;7.40;;;6.30;99.90;;;;;;5008827;28;20043;-76
2022/11/26 00:34:51;;;;;;;17.17;6.28;;;6.30;99.90;;;;;;5040984;28;20417;-77
2022/11/26 00:37:26;;;;;;;16.73;6.72;;;6.20;99.90;;;;;;5037489;28;20038;-76
2022/11/26 00:39:52;;;;;;;16.95;6.68;;;6.20;99.90;;;;;;5034179;28;20113;-77
2022/11/26 00:42:18;;;;;;;16.52;6.85;;;6.20;99.90;;;;;;5016172;28;20062;-77
2022/11/26 00:44:44;;;;;;;19.30;7.10;;;6.70;99.90;;;;;;5015699;28;20029;-77
2022/11/26 00:47:09;;;;;;;16.63;6.72;;;6.20;99.90;;;;;;5024798;28;20547;-76
2022/11/26 00:49:35;;;;;;;15.63;6.82;;;6.10;99.90;;;;;;5015843;28;20033;-76
2022/11/26 00:52:01;;;;;;;17.83;7.30;;;6.20;99.90;;;;;;5014987;28;20410;-77
2022/11/26 00:54:27;;;;;;;19.55;7.65;;;6.10;99.90;;;;;;5012663;28;20042;-77
2022/11/26 00:56:56;;;;;;;18.10;7.78;;;6.10;99.90;;;;;;5025938;28;20037;-77
2022/11/26 00:59:22;;;;;;;17.25;7.32;;;6.10;99.90;;;;;;5010040;28;20129;-77
2022/11/26 01:01:48;;;;;;;24.10;7.43;;;6.10;99.90;;;;;;5007696;28;20041;-77
2022/11/26 01:04:14;;;;;;;17.65;6.68;;;6.10;99.90;;;;;;5037156;28;20124;-77
2022/11/26 01:06:42;;;;;;;15.02;6.85;;;6.10;99.90;;;;;;5033842;28;20116;-77
2022/11/26 01:09:16;;;;;;;20.45;7.38;;;6.10;99.90;;;;;;5013585;28;20115;-77
2022/11/26 01:11:42;;;;;;;21.70;7.90;;;6.00;99.90;;;;;;4990702;28;20124;-77
2022/11/26 01:14:16;;;;;;;19.60;7.18;;;6.00;99.90;;;;;;5022949;28;20129;-77
2022/11/26 01:16:43;;;;;;;21.63;7.60;;;6.00;99.90;;;;;;5023557;28;20045;-77
2022/11/26 01:19:11;;;;;;;16.85;7.10;;;6.00;99.90;;;;;;5005584;28;20109;-77
2022/11/26 01:21:37;;;;;;;20.70;6.70;;;6.00;99.90;;;;;;4997331;28;20471;-76
2022/11/26 01:24:03;;;;;;;19.80;7.10;;;6.00;99.90;;;;;;5053141;28;20042;-77
2022/11/26 01:26:35;;;;;;;22.63;7.35;;;6.00;99.90;;;;;;5037065;28;20573;-77
2022/11/26 01:29:01;;;;;;;18.63;6.70;;;6.00;99.90;;;;;;5008698;28;20037;-77
2022/11/26 01:31:28;;;;;;;18.67;6.13;;;6.00;99.90;;;;;;5007458;28;20111;-77
2022/11/26 01:33:54;;;;;;;14.52;6.78;;;5.90;99.90;;;;;;5007367;28;20053;-77
2022/11/26 01:36:25;;;;;;;14.52;6.53;;;6.00;99.90;;;;;;5016412;28;20049;-77
2022/11/26 01:38:52;;;;;;;19.73;7.03;;;6.00;99.90;;;;;;5022396;28;20037;-77
2022/11/26 01:41:24;;;;;;;14.75;6.60;;;6.00;99.90;;;;;;5035058;28;20309;-77
2022/11/26 01:43:51;;;;;;;16.25;7.15;;;5.90;99.90;;;;;;5011260;28;20060;-77
2022/11/26 01:46:19;;;;;;;14.60;6.35;;;5.90;99.90;;;;;;5044325;28;20588;-77
2022/11/26 01:48:47;;;;;;;15.27;5.50;;;5.90;99.90;;;;;;5028767;28;20029;-77
2022/11/26 01:51:17;;;;;;;18.10;7.00;;;5.90;99.90;;;;;;5015393;28;20077;-77
2022/11/26 01:53:48;;;;;;;20.60;6.32;;;5.90;99.90;;;;;;5019218;28;20044;-76
2022/11/26 01:56:51;;;;;;;15.88;6.28;;;5.90;99.90;;;;;;5018162;28;20033;-77
2022/11/26 01:59:33;;;;;;;17.83;6.07;;;5.90;99.90;;;;;;4949166;28;20054;-75
2022/11/26 02:01:59;;;;;;;13.77;5.70;;;5.90;99.90;;;;;;5028649;28;20056;-77
2022/11/26 02:04:33;;;;;;;16.20;6.38;;;5.80;99.90;;;;;;5017137;28;20569;-76
2022/11/26 02:06:58;;;;;;;17.60;6.53;;;5.80;99.90;;;;;;5029288;28;20043;-77
2022/11/26 02:09:25;;;;;;;14.90;6.57;;;5.80;99.90;;;;;;5026257;28;20509;-77
2022/11/26 02:11:51;;;;;;;19.48;6.75;;;5.80;99.90;;;;;;4994719;28;20243;-77
2022/11/26 02:14:18;;;;;;;17.75;7.28;;;5.70;99.90;;;;;;5063411;28;20103;-77
2022/11/26 02:16:48;;;;;;;12.80;5.75;;;5.80;99.90;;;;;;5027106;28;20042;-76
2022/11/26 02:19:52;;;;;;;15.88;6.60;;;5.80;99.90;;;;;;5018557;28;20065;-76
2022/11/26 02:22:50;;;;;;;15.32;6.05;;;5.70;99.90;;;;;;5052932;28;20057;-76
2022/11/26 02:25:43;;;;;;;18.40;6.30;;;5.70;99.90;;;;;;5033865;28;20042;-76
2022/11/26 02:28:24;;;;;;;12.63;6.00;;;5.70;99.90;;;;;;5033191;28;20049;-77
2022/11/26 02:31:08;;;;;;;13.32;6.53;;;5.70;99.90;;;;;;5032949;28;20417;-77
2022/11/26 02:34:00;;;;;;;14.50;6.47;;;5.60;99.90;;;;;;5019562;28;20080;-77
2022/11/26 02:36:41;;;;;;;13.60;5.38;;;5.60;99.90;;;;;;5026824;28;20037;-77
2022/11/26 02:39:15;;;;;;;11.85;6.50;;;5.60;99.90;;;;;;5021901;28;20053;-77
2022/11/26 02:42:02;;;;;;;11.77;6.45;;;5.60;99.90;;;;;;5005280;28;20050;-77
2022/11/26 02:44:33;;;;;;;11.98;6.20;;;5.50;99.90;;;;;;5012359;28;20504;-76
2022/11/26 02:47:07;;;;;;;15.45;6.13;;;5.50;99.90;;;;;;5018631;28;20536;-76
2022/11/26 02:49:34;;;;;;;14.30;6.50;;;5.50;99.90;;;;;;5014950;28;20033;-76
2022/11/26 02:52:03;;;;;;;13.32;6.55;;;5.50;99.90;;;;;;5012342;28;20056;-77
2022/11/26 02:54:32;;;;;;;16.63;6.47;;;5.50;99.90;;;;;;5021781;28;20045;-76
2022/11/26 02:57:00;;;;;;;15.73;6.57;;;5.50;99.90;;;;;;5013564;28;20059;-76
2022/11/26 02:59:27;;;;;;;12.98;6.38;;;5.50;99.90;;;;;;5002044;28;20041;-77
2022/11/26 03:02:07;;;;;;;14.38;6.55;;;5.40;99.90;;;;;;5017191;28;20123;-76
2022/11/26 03:04:38;;;;;;;14.85;6.95;;;5.40;99.90;;;;;;5010052;28;20033;-78
2022/11/26 03:07:06;;;;;;;16.73;6.85;;;5.40;99.90;;;;;;5024656;28;20048;-76
2022/11/26 03:09:55;;;;;;;15.20;6.78;;;5.40;99.90;;;;;;5009912;28;20066;-76
2022/11/26 03:12:21;;;;;;;15.65;7.22;;;5.40;99.90;;;;;;5010089;28;20180;-76
2022/11/26 03:14:47;;;;;;;15.90;6.78;;;5.40;99.90;;;;;;5007392;28;20120;-77
2022/11/26 03:17:13;;;;;;;14.68;7.22;;;5.40;99.90;;;;;;5013467;28;20041;-76
2022/11/26 03:19:38;;;;;;;13.35;7.10;;;5.40;99.90;;;;;;5027380;28;20063;-78
2022/11/26 03:22:04;;;;;;;15.10;7.90;;;5.40;99.90;;;;;;5018807;28;20045;-77
2022/11/26 03:24:31;;;;;;;15.63;6.72;;;5.40;99.90;;;;;;4990013;28;20042;-76
2022/11/26 03:26:56;;;;;;;16.83;7.00;;;5.40;99.90;;;;;;5038587;28;20443;-77
2022/11/26 03:29:22;;;;;;;13.75;6.90;;;5.40;99.90;;;;;;5026751;28;20075;-76
2022/11/26 03:31:47;;;;;;;16.63;7.10;;;5.40;99.90;;;;;;5029863;28;20045;-77
2022/11/26 03:34:13;;;;;;;16.05;7.95;;;5.30;99.90;;;;;;5017783;28;20077;-76
2022/11/26 03:36:39;;;;;;;15.85;7.60;;;5.30;99.90;;;;;;5024620;28;20048;-77
2022/11/26 03:39:04;;;;;;;15.65;7.22;;;5.30;99.90;;;;;;5008849;28;20159;-77
2022/11/26 03:41:30;;;;;;;16.10;7.60;;;5.30;99.90;;;;;;5009921;28;20070;-76
2022/11/26 03:43:56;;;;;;;18.85;7.97;;;5.30;99.90;;;;;;5017434;28;20042;-77
2022/11/26 03:46:21;;;;;;;17.70;7.80;;;5.30;99.90;;;;;;5013840;28;20037;-76
2022/11/26 03:48:47;;;;;;;15.93;7.75;;;5.30;99.90;;;;;;5012111;28;20042;-76
2022/11/26 03:51:13;;;;;;;18.20;8.15;;;5.30;99.90;;;;;;5018067;28;20513;-76
2022/11/26 03:53:38;;;;;;;15.57;7.43;;;5.30;99.90;;;;;;5012977;28;20050;-78
2022/11/26 03:56:04;;;;;;;14.60;7.75;;;5.30;99.90;;;;;;5041857;28;20038;-76
2022/11/26 03:58:30;;;;;;;17.80;8.05;;;5.30;99.90;;;;;;5014436;28;20104;-76
2022/11/26 04:00:56;;;;;;;20.25;8.77;;;5.20;99.90;;;;;;5015435;28;20092;-76
2022/11/26 04:03:22;;;;;;;17.83;7.75;;;5.30;99.90;;;;;;5037327;28;20038;-77
2022/11/26 04:05:47;;;;;;;18.52;7.65;;;5.30;99.90;;;;;;5034986;28;20060;-76
2022/11/26 04:08:13;;;;;;;16.55;8.18;;;5.10;99.90;;;;;;5044960;28;20050;-77
2022/11/26 04:10:39;;;;;;;21.05;8.38;;;5.30;99.90;;;;;;5038718;28;20038;-79
2022/11/26 04:13:04;;;;;;;15.85;7.50;;;5.30;99.90;;;;;;5048252;28;20038;-78
2022/11/26 04:15:30;;;;;;;18.17;8.15;;;5.20;99.90;;;;;;4993006;28;20176;-76
2022/11/26 04:17:56;;;;;;;15.35;8.43;;;5.20;99.90;;;;;;5051092;28;20042;-76
2022/11/26 04:20:21;;;;;;;17.08;8.23;;;5.20;99.90;;;;;;5043948;28;20040;-76
2022/11/26 04:22:47;;;;;;;19.13;8.48;;;5.30;99.90;;;;;;5009158;28;20767;-78
2022/11/26 04:25:12;;;;;;;16.73;8.10;;;5.30;99.90;;;;;;5025782;28;20045;-76
2022/11/26 04:27:38;;;;;;;15.93;8.50;;;5.50;99.90;;;;;;5009404;28;20120;-76
2022/11/26 04:30:06;;;;;;;18.50;8.10;;;5.20;99.90;;;;;;5051304;28;20053;-77
2022/11/26 04:32:32;;;;;;;19.80;8.38;;;5.30;99.90;;;;;;5021614;28;20564;-76
2022/11/26 04:34:57;;;;;;;19.17;8.43;;;5.30;99.90;;;;;;5018132;28;20042;-77
2022/11/26 04:37:23;;;;;;;22.73;8.50;;;5.30;99.90;;;;;;5014773;28;20041;-77
2022/11/26 04:39:48;;;;;;;13.73;8.43;;;5.50;99.90;;;;;;4993318;28;20037;-77
2022/11/26 04:42:14;;;;;;;24.05;9.07;;;5.20;99.90;;;;;;5013156;28;20030;-76
2022/11/26 04:44:40;;;;;;;14.43;8.90;;;5.30;99.90;;;;;;5030822;28;20112;-77
2022/11/26 04:47:05;;;;;;;17.92;8.32;;;5.30;99.90;;;;;;5012357;28;20043;-76
2022/11/26 04:49:31;;;;;;;18.05;8.85;;;5.20;99.90;;;;;;5007826;28;20509;-76
2022/11/26 04:51:56;;;;;;;18.35;8.07;;;5.30;99.90;;;;;;5039983;28;20053;-77
2022/11/26 04:54:22;;;;;;;18.63;8.90;;;5.20;99.90;;;;;;5012262;28;20069;-76
2022/11/26 04:56:48;;;;;;;16.50;8.55;;;5.20;99.90;;;;;;5022264;28;20083;-76
2022/11/26 04:59:14;;;;;;;19.13;9.18;;;5.20;99.90;;;;;;5022561;28;20448;-77
2022/11/26 05:01:40;;;;;;;20.27;9.27;;;5.20;99.90;;;;;;5023634;28;20042;-78
2022/11/26 05:04:06;;;;;;;21.05;9.00;;;5.20;99.90;;;;;;5016740;28;20038;-77
2022/11/26 05:06:32;;;;;;;19.13;8.82;;;5.20;99.90;;;;;;5020768;28;20083;-76
2022/11/26 05:08:57;;;;;;;17.67;9.63;;;5.20;99.90;;;;;;5011668;28;20044;-78
2022/11/26 05:11:23;;;;;;;15.80;8.75;;;5.20;99.90;;;;;;5014436;28;20441;-77
2022/11/26 05:13:48;;;;;;;16.98;9.02;;;5.20;99.90;;;;;;5016453;28;20044;-77
2022/11/26 05:16:14;;;;;;;24.65;8.88;;;5.20;99.90;;;;;;5044964;28;20041;-76
2022/11/26 05:18:39;;;;;;;23.38;9.90;;;5.20;99.90;;;;;;5019327;28;20077;-76
2022/11/26 05:21:05;;;;;;;21.50;9.63;;;5.20;99.90;;;;;;5011894;28;20038;-76
2022/11/26 05:23:31;;;;;;;18.75;9.40;;;5.20;99.90;;;;;;5012255;28;20045;-76
2022/11/26 05:25:57;;;;;;;20.52;8.85;;;5.20;99.90;;;;;;5015099;28;20046;-77
2022/11/26 05:28:22;;;;;;;23.30;9.57;;;5.30;99.90;;;;;;5023213;28;20120;-77
2022/11/26 05:30:48;;;;;;;18.48;9.82;;;5.20;99.90;;;;;;5031841;28;20237;-77
2022/11/26 05:33:13;;;;;;;19.38;8.85;;;5.20;99.90;;;;;;5015763;28;20044;-76
2022/11/26 05:35:39;;;;;;;16.60;8.73;;;5.10;99.90;;;;;;5024161;28;21441;-76
2022/11/26 05:38:05;;;;;;;18.20;9.50;;;5.10;99.90;;;;;;5042476;28;20084;-78
2022/11/26 05:40:31;;;;;;;15.43;8.93;;;5.10;99.90;;;;;;5012203;28;20064;-76
2022/11/26 05:42:56;;;;;;;19.50;8.80;;;5.10;99.90;;;;;;5011943;28;20623;-77
2022/11/26 05:45:22;;;;;;;15.70;9.05;;;5.10;99.90;;;;;;5019705;28;20038;-77
2022/11/26 05:47:47;;;;;;;19.08;9.50;;;5.40;99.90;;;;;;5019242;28;20117;-76
2022/11/26 05:50:13;;;;;;;15.93;8.70;;;5.10;99.90;;;;;;5023039;28;20387;-77
2022/11/26 05:52:39;;;;;;;24.55;10.38;;;5.20;99.90;;;;;;5011614;28;20046;-77
2022/11/26 05:55:05;;;;;;;16.67;9.13;;;5.20;99.90;;;;;;5017984;28;20053;-77
2022/11/26 05:57:31;;;;;;;20.73;9.10;;;5.20;99.90;;;;;;5014055;28;20030;-76
2022/11/26 05:59:56;;;;;;;16.45;8.77;;;5.10;99.90;;;;;;5020375;28;20536;-77
2022/11/26 06:02:22;;;;;;;16.40;8.80;;;5.10;99.90;;;;;;5029529;28;20040;-77
2022/11/26 06:04:48;;;;;;;21.73;9.00;;;5.10;99.90;;;;;;5001077;28;20074;-78
2022/11/26 06:07:13;;;;;;;19.25;8.95;;;5.10;99.90;;;;;;5011481;28;20038;-78
2022/11/26 06:09:39;;;;;;;24.33;9.68;;;5.10;99.90;;;;;;5016997;28;20509;-76
2022/11/26 06:12:05;;;;;;;27.40;9.45;;;5.10;99.90;;;;;;5018035;28;20050;-76
2022/11/26 06:14:30;;;;;;;22.73;9.40;;;5.10;99.90;;;;;;5021092;28;20041;-76
2022/11/26 06:16:56;;;;;;;19.35;9.75;;;5.10;99.90;;;;;;5018517;28;20038;-76
2022/11/26 06:19:21;;;;;;;19.38;9.65;;;5.20;99.90;;;;;;5034093;28;20049;-75
2022/11/26 06:21:47;;;;;;;24.13;9.38;;;5.10;99.90;;;;;;5002380;28;20552;-75
2022/11/26 06:24:13;;;;;;;18.25;9.05;;;5.10;99.90;;;;;;5024320;28;20041;-76
2022/11/26 06:26:39;;;;;;;18.23;8.80;;;5.10;99.90;;;;;;5018834;28;20049;-78
2022/11/26 06:29:04;;;;;;;20.52;9.20;;;5.10;99.90;;;;;;5007260;28;20033;-78
2022/11/26 06:31:31;;;;;;;28.40;11.00;;;5.20;99.90;;;;;;5007890;28;20037;-76
2022/11/26 06:33:57;;;;;;;21.15;10.15;;;5.10;99.90;;;;;;5013670;28;20260;-77
2022/11/26 06:36:23;;;;;;;23.40;9.70;;;5.20;99.90;;;;;;5039390;28;20494;-78
2022/11/26 06:38:49;;;;;;;23.05;10.02;;;5.20;99.90;;;;;;5040333;28;20042;-78
2022/11/26 06:41:14;;;;;;;16.92;8.48;;;5.20;99.90;;;;;;5040072;28;20041;-79
2022/11/26 06:43:40;;;;;;;22.05;9.45;;;5.20;99.90;;;;;;5010754;28;20034;-77
2022/11/26 06:46:08;;;;;;;21.20;9.93;;;5.20;99.90;;;;;;5026318;28;20482;-76
2022/11/26 06:48:35;;;;;;;21.95;9.60;;;5.20;99.90;;;;;;5005752;28;20041;-76
2022/11/26 06:51:10;;;;;;;18.85;8.95;;;5.20;99.90;;;;;;5011629;28;20057;-78
2022/11/26 06:53:36;;;;;;;20.23;9.07;;;5.20;99.90;;;;;;5014724;28;20078;-76
2022/11/26 06:56:04;;;;;;;22.70;9.68;;;5.20;99.90;;;;;;5043206;28;20060;-76
2022/11/26 06:58:29;;;;;;;23.73;9.40;;;5.20;99.90;;;;;;4996733;28;20084;-77
2022/11/26 07:00:55;;;;;;;19.20;9.27;;;5.20;99.90;;;;;;5046165;28;20077;-76
2022/11/26 07:03:22;;;;;;;23.90;9.25;;;5.20;99.90;;;;;;5021971;28;20045;-79
2022/11/26 07:05:48;;;;;;;22.02;9.25;;;5.20;99.90;;;;;;5006693;28;20034;-77
2022/11/26 07:08:13;;;;;;;22.33;9.23;;;5.20;99.90;;;;;;5005745;28;20096;-79
2022/11/26 07:10:39;;;;;;;23.05;9.35;;;5.20;99.90;;;;;;5021844;28;20152;-77
2022/11/26 07:13:05;;;;;;;20.30;9.23;;;5.20;99.90;;;;;;5006375;28;20097;-77
2022/11/26 07:15:31;;;;;;;23.92;8.65;;;5.20;99.90;;;;;;5017890;28;20041;-77
2022/11/26 07:17:57;;;;;;;21.00;8.82;;;5.20;99.90;;;;;;5032025;28;20048;-77
2022/11/26 07:20:23;;;;;;;23.20;9.93;;;5.20;99.90;;;;;;5053676;28;20038;-76
2022/11/26 07:22:49;;;;;;;25.25;9.98;;;5.20;99.90;;;;;;5010081;28;20041;-77
2022/11/26 07:25:16;;;;;;;24.48;9.38;;;5.20;99.90;;;;;;5043750;28;20402;-77
2022/11/26 07:27:42;;;;;;;21.65;9.20;;;5.20;99.90;;;;;;5016495;28;20030;-79
2022/11/26 07:30:08;;;;;;;18.17;9.10;;;5.20;99.90;;;;;;5009457;28;20450;-76
2022/11/26 07:32:34;;;;;;;22.25;9.93;;;5.20;99.90;;;;;;5020774;28;20041;-79
2022/11/26 07:35:01;;;;;;;23.27;9.65;;;5.20;99.90;;;;;;4997119;28;20053;-77
2022/11/26 07:37:27;;;;;;;17.90;9.02;;;5.20;99.90;;;;;;5051997;28;20045;-77
2022/11/26 07:39:52;;;;;;;21.90;9.43;;;5.20;99.90;;;;;;5025908;28;20037;-78
2022/11/26 07:42:18;;;;;;;17.30;9.20;;;5.20;99.90;;;;;;5010019;28;20414;-76
2022/11/26 07:44:43;;;;;;;24.45;10.60;;;5.20;99.90;;;;;;5013090;28;20092;-76
2022/11/26 07:47:09;;;;;;;22.90;9.55;;;5.20;99.90;;;;;;5050893;28;20048;-77
2022/11/26 07:49:35;;;;;;;21.05;9.38;;;5.20;99.90;;;;;;5018068;28;20069;-79
2022/11/26 07:52:01;;;;;;;18.13;9.43;;;5.20;99.90;;;;;;5013126;28;20096;-77
2022/11/26 07:54:27;;;;;;;21.73;9.38;;;5.30;99.90;;;;;;5013482;28;20041;-76
2022/11/26 07:56:52;;;;;;;21.05;10.15;;;5.30;99.90;;;;;;5016332;28;20521;-76
2022/11/26 07:59:18;;;;;;;20.95;9.43;;;5.20;99.90;;;;;;5019564;28;20042;-76
2022/11/26 08:01:44;;;;;;;21.33;9.93;;;5.30;99.90;;;;;;5040014;28;20041;-77
2022/11/26 08:04:09;;;;;;;16.58;9.10;;;5.30;99.90;;;;;;5013521;28;20092;-77
2022/11/26 08:06:35;;;;;;;22.77;10.23;;;5.30;99.90;;;;;;5047420;28;20037;-76
2022/11/26 08:09:02;;;;;;;22.90;10.38;;;5.30;99.90;;;;;;4998572;28;20125;-80
2022/11/26 08:11:30;;;;;;;21.83;9.55;;;5.20;99.90;;;;;;5010454;28;20048;-77
2022/11/26 08:14:09;;;;;;;26.02;9.48;;;5.30;99.90;;;;;;5012789;28;20518;-77
2022/11/26 08:16:34;;;;;;;26.35;10.25;;;5.30;99.90;;;;;;5015726;28;20551;-76
2022/11/26 08:19:06;;;;;;;18.15;9.25;;;5.30;99.90;;;;;;5008253;28;20034;-77
2022/11/26 08:21:32;;;;;;;22.98;9.60;;;5.30;99.90;;;;;;5014623;28;20096;-77
2022/11/26 08:23:58;;;;;;;20.27;10.05;;;5.30;99.90;;;;;;5014777;28;20084;-76
2022/11/26 08:26:24;;;;;;;20.90;9.90;;;5.30;99.90;;;;;;5030514;28;20034;-78
2022/11/26 08:28:50;;;;;;;22.95;10.43;;;5.40;99.90;;;;;;5043352;28;20061;-80
2022/11/26 08:31:16;;;;;;;20.38;10.00;;;5.40;99.90;;;;;;5052953;28;20041;-80
2022/11/26 08:33:43;;;;;;;23.95;10.10;;;5.40;99.90;;;;;;5021866;28;20431;-77
2022/11/26 08:36:10;;;;;;;25.08;11.40;;;5.40;99.90;;;;;;5009878;28;20071;-77
2022/11/26 08:38:36;;;;;;;23.70;11.02;;;4.80;99.90;;;;;;5013526;28;20235;-77
2022/11/26 08:41:08;;;;;;;24.95;10.55;;;5.40;99.90;;;;;;5029900;28;20045;-77
2022/11/26 08:43:35;;;;;;;22.52;11.70;;;5.40;99.90;;;;;;5012132;28;20038;-76
2022/11/26 08:46:01;;;;;;;28.95;12.27;;;5.40;99.90;;;;;;5019404;28;20069;-76
2022/11/26 08:48:28;;;;;;;20.55;12.15;;;5.60;99.90;;;;;;5024805;28;20114;-78
2022/11/26 08:50:59;;;;;;;25.48;11.57;;;5.40;99.90;;;;;;5010706;28;20042;-78
2022/11/26 08:53:25;;;;;;;28.65;11.95;;;5.50;99.90;;;;;;5058040;28;20092;-77
2022/11/26 08:55:51;;;;;;;24.13;11.70;;;5.50;99.90;;;;;;5058528;28;20502;-77
2022/11/26 08:58:17;;;;;;;32.65;12.82;;;5.50;99.90;;;;;;5009019;28;20077;-78
2022/11/26 09:00:43;;;;;;;29.38;13.40;;;5.50;99.90;;;;;;5018469;28;20052;-78
2022/11/26 09:03:08;;;;;;;31.83;13.13;;;5.60;99.90;;;;;;5033668;28;20114;-76
2022/11/26 09:05:34;;;;;;;30.75;14.00;;;5.60;99.90;;;;;;5024846;28;20038;-78
2022/11/26 09:08:00;;;;;;;29.15;13.07;;;5.60;99.90;;;;;;5033570;28;20477;-77
2022/11/26 09:10:25;;;;;;;29.67;12.77;;;5.70;99.90;;;;;;5020577;28;20046;-78
2022/11/26 09:12:51;;;;;;;29.52;13.15;;;5.80;99.90;;;;;;5030624;28;20045;-77
2022/11/26 09:15:16;;;;;;;30.70;14.40;;;5.70;99.90;;;;;;5025758;28;20042;-78
2022/11/26 09:17:42;;;;;;;29.40;13.38;;;5.70;99.90;;;;;;5011453;28;20034;-79
2022/11/26 09:20:08;;;;;;;31.55;13.20;;;5.70;99.90;;;;;;5026744;28;20072;-78
2022/11/26 09:22:34;;;;;;;29.52;13.45;;;5.70;99.90;;;;;;5022851;28;20077;-78
2022/11/26 09:25:00;;;;;;;30.52;14.38;;;5.80;99.90;;;;;;5052750;28;20046;-77
2022/11/26 09:27:26;;;;;;;29.40;14.38;;;5.80;99.90;;;;;;5017051;28;20044;-78
2022/11/26 09:29:52;;;;;;;29.65;14.30;;;5.90;99.90;;;;;;5030963;28;20030;-78
2022/11/26 09:32:17;;;;;;;33.10;14.55;;;5.90;99.90;;;;;;5048747;28;20124;-77
2022/11/26 09:34:43;;;;;;;35.55;15.90;;;5.90;99.90;;;;;;5018614;28;20404;-78
2022/11/26 09:37:08;;;;;;;32.83;15.85;;;5.90;99.90;;;;;;5057109;28;20037;-77
2022/11/26 09:39:34;;;;;;;33.55;15.48;;;6.00;99.90;;;;;;5027051;28;20173;-78
2022/11/26 09:42:20;;;;;;;33.25;15.98;;;6.00;99.90;;;;;;5022371;28;20073;-77
2022/11/26 09:45:01;;;;;;;38.22;16.42;;;6.10;99.90;;;;;;5049051;28;20037;-78
2022/11/26 09:47:34;;;;;;;38.67;16.85;;;6.10;99.90;;;;;;5010957;28;20041;-78
2022/11/26 09:50:19;;;;;;;40.10;17.95;;;6.10;99.90;;;;;;5028546;28;20041;-78
2022/11/26 09:53:11;;;;;;;40.30;18.45;;;6.20;99.90;;;;;;5011159;28;20109;-78
2022/11/26 09:55:41;;;;;;;35.05;18.63;;;6.30;99.90;;;;;;5017238;28;20040;-78
2022/11/26 09:58:15;;;;;;;36.28;18.33;;;6.30;99.90;;;;;;4998839;28;20483;-78
2022/11/26 10:00:44;;;;;;;42.25;18.25;;;6.40;99.90;;;;;;5011855;28;20072;-78
2022/11/26 10:03:17;;;;;;;48.88;19.42;;;6.40;99.90;;;;;;5050173;28;20045;-78
2022/11/26 10:05:59;;;;;;;35.33;18.77;;;6.40;99.90;;;;;;5024512;28;20030;-77
2022/11/26 10:08:31;;;;;;;45.60;19.17;;;6.50;99.90;;;;;;5023875;28;20049;-78
2022/11/26 10:11:06;;;;;;;41.75;19.70;;;6.50;99.90;;;;;;5003860;28;20155;-76
2022/11/26 10:13:49;;;;;;;40.58;19.77;;;6.60;99.90;;;;;;5040712;28;20042;-77
2022/11/26 10:16:26;;;;;;;45.03;20.77;;;6.60;99.90;;;;;;5025425;28;20376;-78
2022/11/26 10:19:08;;;;;;;44.42;19.85;;;6.70;99.90;;;;;;5036263;28;20052;-78
2022/11/26 10:21:36;;;;;;;47.50;20.90;;;6.70;99.90;;;;;;5049786;28;20046;-78
2022/11/26 10:24:26;;;;;;;47.03;22.48;;;6.80;99.90;;;;;;5019046;28;20081;-78
2022/11/26 10:26:52;;;;;;;49.95;21.02;;;6.80;99.90;;;;;;5011805;28;20430;-78
2022/11/26 10:29:32;;;;;;;50.75;22.27;;;6.90;99.90;;;;;;5012943;28;20405;-78
2022/11/26 10:32:04;;;;;;;52.05;22.60;;;6.90;99.90;;;;;;5012175;28;20045;-78
2022/11/26 10:34:40;;;;;;;51.55;22.77;;;6.90;99.90;;;;;;5016830;28;20084;-77
2022/11/26 10:37:06;;;;;;;51.60;24.30;;;6.90;99.90;;;;;;5016758;28;20045;-78
2022/11/26 10:39:31;;;;;;;48.33;22.67;;;7.00;99.90;;;;;;5029187;28;20045;-78
2022/11/26 10:42:03;;;;;;;41.33;21.05;;;7.00;99.90;;;;;;5044130;28;20042;-78
2022/11/26 10:44:38;;;;;;;53.55;22.23;;;7.10;99.90;;;;;;5042911;28;20034;-78
2022/11/26 10:47:22;;;;;;;43.42;20.17;;;7.10;99.90;;;;;;5052120;28;20472;-78
2022/11/26 10:49:50;;;;;;;47.63;23.17;;;7.20;99.90;;;;;;5020147;28;20045;-78
2022/11/26 10:52:24;;;;;;;43.40;20.98;;;7.30;99.90;;;;;;5015525;28;20049;-78
2022/11/26 10:55:28;;;;;;;44.40;20.80;;;7.30;99.90;;;;;;5030267;28;20053;-77
2022/11/26 10:58:01;;;;;;;46.20;21.92;;;7.30;99.90;;;;;;4974251;28;20077;-78
2022/11/26 11:00:38;;;;;;;49.45;22.63;;;7.40;99.90;;;;;;4992477;28;20061;-78
2022/11/26 11:03:15;;;;;;;43.75;20.77;;;7.40;99.90;;;;;;4988576;28;20487;-77
2022/11/26 11:05:43;;;;;;;43.83;20.83;;;7.40;99.90;;;;;;5018477;28;20041;-78
2022/11/26 11:08:13;;;;;;;48.00;20.73;;;7.40;99.90;;;;;;5021975;28;20386;-78
2022/11/26 11:10:53;;;;;;;47.22;20.77;;;7.50;99.90;;;;;;5018090;28;20087;-78
2022/11/26 11:13:18;;;;;;;52.63;21.70;;;7.70;99.90;;;;;;5028832;28;20048;-77
2022/11/26 11:15:44;;;;;;;48.78;21.92;;;7.60;99.90;;;;;;5037010;28;20120;-77
2022/11/26 11:18:20;;;;;;;52.78;22.58;;;7.60;99.90;;;;;;5055202;28;20437;-78
2022/11/26 11:20:58;;;;;;;49.90;21.80;;;7.60;99.90;;;;;;5010912;28;20054;-78
2022/11/26 11:23:26;;;;;;;43.45;20.65;;;8.00;99.90;;;;;;5037377;28;20052;-78
2022/11/26 11:26:20;;;;;;;45.28;19.42;;;7.60;99.90;;;;;;5020441;28;20061;-78
2022/11/26 11:28:51;;;;;;;42.92;20.38;;;7.80;99.90;;;;;;5007425;28;20042;-80
2022/11/26 11:31:20;;;;;;;39.93;19.90;;;7.70;99.90;;;;;;5029001;28;20070;-78
2022/11/26 11:33:46;;;;;;;44.30;19.58;;;7.80;99.90;;;;;;5018894;28;20096;-78
2022/11/26 11:36:12;;;;;;;41.22;19.13;;;7.80;99.90;;;;;;5022664;28;20064;-78
2022/11/26 11:39:04;;;;;;;46.70;20.42;;;7.90;99.90;;;;;;5019283;28;20494;-77
2022/11/26 11:41:35;;;;;;;40.33;19.63;;;7.90;99.90;;;;;;5013021;28;20045;-78
2022/11/26 11:44:17;;;;;;;48.60;19.15;;;7.90;99.90;;;;;;5018269;28;20039;-76
2022/11/26 11:47:17;;;;;;;45.85;18.67;;;7.90;99.90;;;;;;5011936;28;20034;-77
2022/11/26 11:50:01;;;;;;;39.53;17.05;;;8.00;99.90;;;;;;5024939;28;20529;-78
2022/11/26 11:52:48;;;;;;;45.38;19.65;;;8.00;99.90;;;;;;5009896;28;20124;-78
2022/11/26 11:55:44;;;;;;;40.63;18.63;;;8.00;99.90;;;;;;5018562;28;20523;-78
2022/11/26 11:58:28;;;;;;;46.03;18.08;;;8.00;99.90;;;;;;5023465;28;20405;-77
2022/11/26 12:01:08;;;;;;;39.58;17.38;;;8.10;99.90;;;;;;5017650;28;20042;-77
2022/11/26 12:04:12;;;;;;;46.50;17.90;;;8.10;99.90;;;;;;5015507;28;20091;-78
2022/11/26 12:07:15;;;;;;;41.03;18.17;;;8.10;99.90;;;;;;5049163;28;20100;-77
2022/11/26 12:09:48;;;;;;;43.33;17.08;;;8.10;99.90;;;;;;5030609;28;20099;-77
2022/11/26 12:12:22;;;;;;;37.15;17.42;;;8.10;99.90;;;;;;5018204;28;20045;-77
2022/11/26 12:15:09;;;;;;;44.92;18.92;;;8.10;99.90;;;;;;5022895;28;20033;-77
2022/11/26 12:18:07;;;;;;;36.85;18.48;;;8.10;99.90;;;;;;5012690;28;20052;-77
2022/11/26 12:20:55;;;;;;;38.20;17.10;;;8.10;99.90;;;;;;5014650;28;20095;-77
2022/11/26 12:23:48;;;;;;;35.20;17.05;;;8.10;99.90;;;;;;5051984;28;20029;-78
2022/11/26 12:26:25;;;;;;;43.17;17.75;;;8.10;99.90;;;;;;5046161;28;20045;-78
2022/11/26 12:28:53;;;;;;;48.45;18.13;;;8.20;99.90;;;;;;5044408;28;20042;-78
2022/11/26 12:31:31;;;;;;;43.10;17.15;;;8.10;99.90;;;;;;5033601;28;20042;-77
2022/11/26 12:34:07;;;;;;;34.28;16.35;;;8.20;99.90;;;;;;5016225;28;20133;-78
2022/11/26 12:36:44;;;;;;;37.50;16.60;;;8.20;99.90;;;;;;5034414;28;20033;-77
2022/11/26 12:39:27;;;;;;;40.17;17.00;;;9.00;99.90;;;;;;5050128;28;20042;-77
2022/11/26 12:42:02;;;;;;;44.05;17.85;;;8.20;99.90;;;;;;5035104;28;20052;-76
2022/11/26 12:44:43;;;;;;;38.40;17.08;;;8.20;99.90;;;;;;5046852;28;20038;-78
2022/11/26 12:47:20;;;;;;;37.67;16.60;;;8.30;99.90;;;;;;5019728;28;20045;-77
2022/11/26 12:49:56;;;;;;;42.33;17.02;;;8.30;99.90;;;;;;5005635;28;20390;-78
2022/11/26 12:52:46;;;;;;;37.17;17.42;;;8.30;99.90;;;;;;5021315;28;20077;-77
2022/11/26 12:55:36;;;;;;;35.60;16.35;;;8.40;99.90;;;;;;5043652;28;20037;-78
2022/11/26 12:58:23;;;;;;;39.97;16.92;;;8.40;99.90;;;;;;5012445;28;20046;-78
2022/11/26 13:00:52;;;;;;;35.97;15.70;;;8.40;99.90;;;;;;5013684;28;20037;-76